createdAt,value
2023-08-01T00:01:35.141Z,2.67
2023-08-01T00:04:02.107Z,4.35
2023-08-01T00:06:28.901Z,2.30
2023-08-01T00:08:55.660Z,2.78
2023-08-01T00:11:22.444Z,2.53
2023-08-01T00:13:49.182Z,3.08
2023-08-01T00:16:15.965Z,2.78
2023-08-01T00:18:42.802Z,5.18
2023-08-01T00:21:12.687Z,3.20
2023-08-01T00:23:39.840Z,4.32
2023-08-01T00:26:06.681Z,3.60
2023-08-01T00:28:33.989Z,3.53
2023-08-01T00:31:04.951Z,4.88
2023-08-01T00:33:31.910Z,4.38
2023-08-01T00:35:58.668Z,3.83
2023-08-01T00:38:25.490Z,2.63
2023-08-01T00:40:52.336Z,4.00
2023-08-01T00:43:19.133Z,3.42
2023-08-01T00:45:47.064Z,4.85
2023-08-01T00:48:13.949Z,3.08
2023-08-01T00:50:40.997Z,7.00
2023-08-01T00:53:07.928Z,4.55
2023-08-01T00:55:35.512Z,6.53
2023-08-01T00:58:02.409Z,3.55
2023-08-01T01:00:29.354Z,4.60
2023-08-01T01:02:56.729Z,5.85
2023-08-01T01:05:25.481Z,4.95
2023-08-01T01:07:52.410Z,5.93
2023-08-01T01:10:19.230Z,4.55
2023-08-01T01:12:46.201Z,5.40
2023-08-01T01:15:12.995Z,5.13
2023-08-01T01:17:39.764Z,5.00
2023-08-01T01:20:07.160Z,7.82
2023-08-01T01:22:34.143Z,8.27
2023-08-01T01:25:01.884Z,4.15
2023-08-01T01:27:29.392Z,6.35
2023-08-01T01:29:56.793Z,8.45
2023-08-01T01:32:24.046Z,4.13
2023-08-01T01:34:50.922Z,5.50
2023-08-01T01:37:17.675Z,3.97
2023-08-01T01:39:44.432Z,7.55
2023-08-01T01:42:12.833Z,5.70
2023-08-01T01:44:39.878Z,4.67
2023-08-01T01:47:07.675Z,3.60
2023-08-01T01:49:34.468Z,4.28
2023-08-01T01:52:01.263Z,5.10
2023-08-01T01:54:28.089Z,5.47
2023-08-01T01:56:55.081Z,7.63
2023-08-01T01:59:21.906Z,3.72
2023-08-01T02:01:48.726Z,5.95
2023-08-01T02:04:15.473Z,6.63
2023-08-01T02:06:42.431Z,5.68
2023-08-01T02:09:09.478Z,6.03
2023-08-01T02:11:36.255Z,4.85
2023-08-01T02:14:04.112Z,5.30
2023-08-01T02:16:31.031Z,4.75
2023-08-01T02:18:57.919Z,7.32
2023-08-01T02:21:24.846Z,5.60
2023-08-01T02:23:51.651Z,6.68
2023-08-01T02:26:18.496Z,5.25
2023-08-01T02:28:45.310Z,5.35
2023-08-01T02:31:12.434Z,8.35
2023-08-01T02:33:39.252Z,6.72
2023-08-01T02:36:06.230Z,6.65
2023-08-01T02:38:33.120Z,8.38
2023-08-01T02:40:59.997Z,6.25
2023-08-01T02:43:26.897Z,6.43
2023-08-01T02:45:53.742Z,5.22
2023-08-01T02:48:20.510Z,7.00
2023-08-01T02:50:47.555Z,5.75
2023-08-01T02:53:14.708Z,5.88
2023-08-01T02:55:41.578Z,9.80
2023-08-01T02:58:08.470Z,8.88
2023-08-01T03:00:39.105Z,11.68
2023-08-01T03:03:06.029Z,8.50
2023-08-01T03:05:33.057Z,8.50
2023-08-01T03:07:59.945Z,6.78
2023-08-01T03:10:36.028Z,10.77
2023-08-01T03:13:03.939Z,9.73
2023-08-01T03:15:30.727Z,8.73
2023-08-01T03:17:57.569Z,7.63
2023-08-01T03:20:24.545Z,7.18
2023-08-01T03:22:51.330Z,8.20
2023-08-01T03:25:18.138Z,6.55
2023-08-01T03:27:44.946Z,6.75
2023-08-01T03:30:12.042Z,9.43
2023-08-01T03:32:38.966Z,6.97
2023-08-01T03:35:06.637Z,9.02
2023-08-01T03:37:33.702Z,9.32
2023-08-01T03:40:00.633Z,9.23
2023-08-01T03:42:27.536Z,9.02
2023-08-01T03:44:54.355Z,7.53
2023-08-01T03:47:21.108Z,10.05
2023-08-01T03:49:47.900Z,8.38
2023-08-01T03:52:15.490Z,9.05
2023-08-01T03:54:42.383Z,7.13
2023-08-01T03:57:09.328Z,9.10
2023-08-01T03:59:36.238Z,9.68
2023-08-01T04:02:05.148Z,7.90
2023-08-01T04:04:32.479Z,11.55
2023-08-01T04:06:59.415Z,9.93
2023-08-01T04:09:26.177Z,9.80
2023-08-01T04:11:52.924Z,9.02
2023-08-01T04:14:19.718Z,10.98
2023-08-01T04:16:46.502Z,10.45
2023-08-01T04:19:14.166Z,10.45
2023-08-01T04:21:41.128Z,13.13
2023-08-01T04:24:07.897Z,11.98
2023-08-01T04:26:34.693Z,10.27
2023-08-01T04:29:01.594Z,11.43
2023-08-01T04:31:28.558Z,8.80
2023-08-01T04:33:55.369Z,10.32
2023-08-01T04:36:22.941Z,13.13
2023-08-01T04:38:49.713Z,10.25
2023-08-01T04:41:16.631Z,11.50
2023-08-01T04:43:43.482Z,11.13
2023-08-01T04:46:12.427Z,10.82
2023-08-01T04:48:40.777Z,10.93
2023-08-01T04:51:07.679Z,10.27
2023-08-01T04:53:34.435Z,10.32
2023-08-01T04:56:01.207Z,9.68
2023-08-01T04:58:28.170Z,10.55
2023-08-01T05:00:54.946Z,13.05
2023-08-01T05:03:21.795Z,9.32
2023-08-01T05:05:48.647Z,8.88
2023-08-01T05:08:15.386Z,11.30
2023-08-01T05:10:42.165Z,9.27
2023-08-01T05:13:08.975Z,10.00
2023-08-01T05:15:35.752Z,8.55
2023-08-01T05:18:02.544Z,10.13
2023-08-01T05:20:31.865Z,8.35
2023-08-01T05:23:00.218Z,11.55
2023-08-01T05:25:27.105Z,8.65
2023-08-01T05:27:54.927Z,12.30
2023-08-01T05:30:21.751Z,9.27
2023-08-01T05:32:48.555Z,10.40
2023-08-01T05:35:15.555Z,12.75
2023-08-01T05:37:42.327Z,9.80
2023-08-01T05:40:09.855Z,11.02
2023-08-01T05:42:36.670Z,8.07
2023-08-01T05:45:05.117Z,10.48
2023-08-01T05:47:32.330Z,8.52
2023-08-01T05:49:59.140Z,8.55
2023-08-01T05:52:26.265Z,8.93
2023-08-01T05:54:53.047Z,9.98
2023-08-01T05:57:20.018Z,10.15
2023-08-01T05:59:47.149Z,10.40
2023-08-01T06:02:14.036Z,10.25
2023-08-01T06:04:40.901Z,13.20
2023-08-01T06:07:07.701Z,9.80
2023-08-01T06:09:34.518Z,8.77
2023-08-01T06:12:01.359Z,13.45
2023-08-01T06:14:28.241Z,13.30
2023-08-01T06:16:55.047Z,18.33
2023-08-01T06:19:21.892Z,14.23
2023-08-01T06:21:48.716Z,23.70
2023-08-01T06:24:15.475Z,17.17
2023-08-01T06:26:42.623Z,22.65
2023-08-01T06:29:09.672Z,16.25
2023-08-01T06:31:36.460Z,17.25
2023-08-01T06:34:03.394Z,22.45
2023-08-01T06:36:30.195Z,19.90
2023-08-01T06:38:56.953Z,16.60
2023-08-01T06:41:23.748Z,23.30
2023-08-01T06:43:52.413Z,24.95
2023-08-01T06:46:19.278Z,17.77
2023-08-01T06:48:46.095Z,23.33
2023-08-01T06:51:12.887Z,16.10
2023-08-01T06:53:39.635Z,16.98
2023-08-01T06:56:06.472Z,18.02
2023-08-01T06:58:33.224Z,18.67
2023-08-01T07:01:00.003Z,18.67
2023-08-01T07:03:26.846Z,17.73
2023-08-01T07:05:53.670Z,18.48
2023-08-01T07:08:22.459Z,17.15
2023-08-01T07:10:49.781Z,14.15
2023-08-01T07:13:17.259Z,16.10
2023-08-01T07:15:44.075Z,20.40
2023-08-01T07:18:10.858Z,17.80
2023-08-01T07:20:37.764Z,17.48
2023-08-01T07:23:04.529Z,11.85
2023-08-01T07:25:31.342Z,14.18
2023-08-01T07:27:58.835Z,13.27
2023-08-01T07:30:25.691Z,24.95
2023-08-01T07:32:52.571Z,22.48
2023-08-01T07:35:19.509Z,14.43
2023-08-01T07:37:46.269Z,16.08
2023-08-01T07:40:13.038Z,16.15
2023-08-01T07:42:39.824Z,12.90
2023-08-01T07:45:08.247Z,13.68
2023-08-01T07:47:35.079Z,14.65
2023-08-01T07:50:01.966Z,12.88
2023-08-01T07:52:28.799Z,15.40
2023-08-01T07:54:58.395Z,17.65
2023-08-01T07:57:25.309Z,10.98
2023-08-01T07:59:52.064Z,12.32
2023-08-01T08:02:18.829Z,12.80
2023-08-01T08:04:45.722Z,10.80
2023-08-01T08:07:12.724Z,14.27
2023-08-01T08:09:39.509Z,12.90
2023-08-01T08:12:06.844Z,13.93
2023-08-01T08:14:33.642Z,15.85
2023-08-01T08:17:00.441Z,16.30
2023-08-01T08:19:27.340Z,10.68
2023-08-01T08:21:54.116Z,15.65
2023-08-01T08:24:20.935Z,12.32
2023-08-01T08:26:47.800Z,13.75
2023-08-01T08:29:14.650Z,12.00
2023-08-01T08:31:41.462Z,13.63
2023-08-01T08:34:08.277Z,8.32
2023-08-01T08:36:35.144Z,9.38
2023-08-01T08:39:02.152Z,11.63
2023-08-01T08:41:29.229Z,8.18
2023-08-01T08:43:58.513Z,10.32
2023-08-01T08:46:29.935Z,14.15
2023-08-01T08:48:58.340Z,12.73
2023-08-01T08:51:28.246Z,12.88
2023-08-01T08:53:56.112Z,14.23
2023-08-01T08:56:23.785Z,9.98
2023-08-01T08:58:51.074Z,10.00
2023-08-01T09:01:20.163Z,12.18
2023-08-01T09:03:47.178Z,13.52
2023-08-01T09:06:18.844Z,10.40
2023-08-01T09:08:56.947Z,9.80
2023-08-01T09:11:23.741Z,14.43
2023-08-01T09:13:51.582Z,8.70
2023-08-01T09:16:18.451Z,9.98
2023-08-01T09:18:52.622Z,12.85
2023-08-01T09:21:20.699Z,11.48
2023-08-01T09:23:47.567Z,11.23
2023-08-01T09:26:17.786Z,11.25
2023-08-01T09:28:44.713Z,13.73
2023-08-01T09:31:12.470Z,12.82
2023-08-01T09:33:41.175Z,10.80
2023-08-01T09:36:09.482Z,11.73
2023-08-01T09:38:37.285Z,14.10
2023-08-01T09:41:05.291Z,9.63
2023-08-01T09:43:39.135Z,13.52
2023-08-01T09:46:08.189Z,14.73
2023-08-01T09:51:08.182Z,11.32
2023-08-01T09:53:35.976Z,11.38
2023-08-01T09:56:03.324Z,7.45
2023-08-01T09:58:37.510Z,12.43
2023-08-01T10:01:05.196Z,8.13
2023-08-01T10:03:32.391Z,9.73
2023-08-01T10:05:59.811Z,5.82
2023-08-01T10:08:26.956Z,10.15
2023-08-01T10:10:57.923Z,10.20
2023-08-01T10:13:27.908Z,7.03
2023-08-01T10:15:55.252Z,7.43
2023-08-01T10:18:22.385Z,7.78
2023-08-01T10:20:49.587Z,9.88
2023-08-01T10:23:16.704Z,8.18
2023-08-01T10:25:44.491Z,7.03
2023-08-01T10:28:11.608Z,7.00
2023-08-01T10:30:38.453Z,8.38
2023-08-01T10:33:05.407Z,9.00
2023-08-01T10:35:39.875Z,8.98
2023-08-01T10:38:11.789Z,6.30
2023-08-01T10:40:43.820Z,8.45
2023-08-01T10:43:22.911Z,6.72
2023-08-01T10:45:50.265Z,10.27
2023-08-01T10:48:17.128Z,8.25
2023-08-01T10:50:43.937Z,8.77
2023-08-01T10:53:11.905Z,8.38
2023-08-01T10:55:47.136Z,8.43
2023-08-01T10:58:14.166Z,7.20
2023-08-01T11:00:41.136Z,7.80
2023-08-01T11:03:08.092Z,8.52
2023-08-01T11:05:35.056Z,8.90
2023-08-01T11:08:03.768Z,8.18
2023-08-01T11:10:32.363Z,8.80
2023-08-01T11:13:00.241Z,7.38
2023-08-01T11:15:27.078Z,11.10
2023-08-01T11:17:56.316Z,9.48
2023-08-01T11:20:25.191Z,8.70
2023-08-01T11:22:58.925Z,9.60
2023-08-01T11:25:39.800Z,9.80
2023-08-01T11:28:16.211Z,8.68
2023-08-01T11:30:44.064Z,8.10
2023-08-01T11:33:19.042Z,9.60
2023-08-01T11:35:46.034Z,6.82
2023-08-01T11:38:12.922Z,7.90
2023-08-01T11:40:40.672Z,8.80
2023-08-01T11:43:07.694Z,7.38
2023-08-01T11:45:34.829Z,7.70
2023-08-01T11:48:03.029Z,7.85
2023-08-01T11:50:30.223Z,6.90
2023-08-01T11:52:57.396Z,7.50
2023-08-01T11:55:27.496Z,5.35
2023-08-01T11:57:58.806Z,7.05
2023-08-01T12:00:30.094Z,7.95
2023-08-01T12:03:15.037Z,5.78
2023-08-01T12:05:42.834Z,7.47
2023-08-01T12:08:14.407Z,6.03
2023-08-01T12:10:47.093Z,6.68
2023-08-01T12:13:23.991Z,5.60
2023-08-01T12:15:52.476Z,6.18
2023-08-01T12:20:54.216Z,8.25
2023-08-01T12:23:22.370Z,5.28
2023-08-01T12:25:50.511Z,5.97
2023-08-01T12:28:17.699Z,7.33
2023-08-01T12:30:45.490Z,6.20
2023-08-01T12:33:12.328Z,11.20
2023-08-01T12:35:42.977Z,5.68
2023-08-01T12:38:10.811Z,9.25
2023-08-01T12:40:38.274Z,6.75
2023-08-01T12:43:05.084Z,8.52
2023-08-01T12:45:32.045Z,9.00
2023-08-01T12:47:59.374Z,6.13
2023-08-01T12:50:26.399Z,5.43
2023-08-01T12:52:53.705Z,6.45
2023-08-01T12:55:20.760Z,7.13
2023-08-01T12:57:47.628Z,6.80
2023-08-01T13:00:14.790Z,5.65
2023-08-01T13:02:41.714Z,8.35
2023-08-01T13:05:08.805Z,6.97
2023-08-01T13:07:36.158Z,4.88
2023-08-01T13:10:03.996Z,9.80
2023-08-01T13:12:30.773Z,5.18
2023-08-01T13:15:07.421Z,7.15
2023-08-01T13:17:40.464Z,23.33
2023-08-01T13:20:09.387Z,7.30
2023-08-01T13:25:04.781Z,7.43
2023-08-01T13:27:32.896Z,8.85
2023-08-01T13:29:59.792Z,9.65
2023-08-01T13:32:26.952Z,10.15
2023-08-01T13:34:53.842Z,9.77
2023-08-01T13:37:20.762Z,8.27
2023-08-01T13:39:47.974Z,10.52
2023-08-01T13:42:14.802Z,7.32
2023-08-01T13:44:42.080Z,11.32
2023-08-01T13:47:09.110Z,8.52
2023-08-01T13:49:36.786Z,9.67
2023-08-01T13:52:05.010Z,10.43
2023-08-01T13:54:31.902Z,10.20
2023-08-01T13:56:58.817Z,7.13
2023-08-01T13:59:25.594Z,8.57
2023-08-01T14:01:53.291Z,9.55
2023-08-01T14:04:21.545Z,13.63
2023-08-01T14:06:48.471Z,8.80
2023-08-01T14:09:15.940Z,8.93
2023-08-01T14:11:43.141Z,9.95
2023-08-01T14:14:10.116Z,10.88
2023-08-01T14:16:37.605Z,6.28
2023-08-01T14:19:07.604Z,7.28
2023-08-01T14:21:37.750Z,7.85
2023-08-01T14:24:05.795Z,9.23
2023-08-01T14:26:33.063Z,8.40
2023-08-01T14:29:00.292Z,9.13
2023-08-01T14:31:27.122Z,5.68
2023-08-01T14:33:53.922Z,8.77
2023-08-01T14:36:20.688Z,7.10
2023-08-01T14:38:52.579Z,10.63
2023-08-01T14:41:36.739Z,9.82
2023-08-01T14:44:06.976Z,9.32
2023-08-01T14:46:33.831Z,6.82
2023-08-01T14:49:00.607Z,5.47
2023-08-01T14:51:27.371Z,11.88
2023-08-01T14:53:54.165Z,7.30
2023-08-01T14:56:20.906Z,5.85
2023-08-01T14:58:47.741Z,6.10
2023-08-01T15:01:19.493Z,6.90
2023-08-01T15:03:47.628Z,5.68
2023-08-01T15:06:16.454Z,9.07
2023-08-01T15:08:43.570Z,7.10
2023-08-01T15:11:10.446Z,4.97
2023-08-01T15:13:37.841Z,5.53
2023-08-01T15:16:04.760Z,5.55
2023-08-01T15:18:32.595Z,5.80
2023-08-01T15:20:59.472Z,5.50
2023-08-01T15:23:26.349Z,9.05
2023-08-01T15:25:54.777Z,6.55
2023-08-01T15:28:21.766Z,5.35
2023-08-01T15:30:48.808Z,8.50
2023-08-01T15:33:17.705Z,8.60
2023-08-01T15:35:47.418Z,4.43
2023-08-01T15:38:14.412Z,7.93
2023-08-01T15:40:41.362Z,5.30
2023-08-01T15:43:08.561Z,10.27
2023-08-01T15:45:35.426Z,9.82
2023-08-01T15:48:02.368Z,6.07
2023-08-01T15:50:29.263Z,12.75
2023-08-01T15:52:56.169Z,13.25
2023-08-01T15:55:22.960Z,12.23
2023-08-01T15:57:49.729Z,11.70
2023-08-01T16:00:16.628Z,7.85
2023-08-01T16:02:43.491Z,7.40
2023-08-01T16:05:11.109Z,6.18
2023-08-01T16:07:38.049Z,4.03
2023-08-01T16:10:05.173Z,7.90
2023-08-01T16:12:31.959Z,4.80
2023-08-01T16:14:58.749Z,8.15
2023-08-01T16:17:25.578Z,5.88
2023-08-01T16:19:52.416Z,10.93
2023-08-01T16:22:19.240Z,6.95
2023-08-01T16:24:46.145Z,4.82
2023-08-01T16:27:12.907Z,13.65
2023-08-01T16:29:40.555Z,5.00
2023-08-01T16:32:07.732Z,6.90
2023-08-01T16:34:34.512Z,5.47
2023-08-01T16:37:02.480Z,8.63
2023-08-01T16:39:29.222Z,8.10
2023-08-01T16:41:58.057Z,7.05
2023-08-01T16:44:25.236Z,7.30
2023-08-01T16:46:52.143Z,9.77
2023-08-01T16:49:23.377Z,6.97
2023-08-01T16:51:52.040Z,10.27
2023-08-01T16:54:18.846Z,6.95
2023-08-01T16:56:45.649Z,7.97
2023-08-01T16:59:12.463Z,7.22
2023-08-01T17:01:39.579Z,6.53
2023-08-01T17:04:08.259Z,6.13
2023-08-01T17:06:35.293Z,7.90
2023-08-01T17:09:02.078Z,5.93
2023-08-01T17:11:28.879Z,6.68
2023-08-01T17:13:55.632Z,6.25
2023-08-01T17:16:22.523Z,11.30
2023-08-01T17:18:49.317Z,5.45
2023-08-01T17:21:19.220Z,6.47
2023-08-01T17:23:46.710Z,7.68
2023-08-01T17:26:13.517Z,8.32
2023-08-01T17:28:40.334Z,10.63
2023-08-01T17:31:08.015Z,7.47
2023-08-01T17:33:34.851Z,7.13
2023-08-01T17:36:01.675Z,12.52
2023-08-01T17:38:28.660Z,9.82
2023-08-01T17:40:55.449Z,6.68
2023-08-01T17:43:22.228Z,7.50
2023-08-01T17:45:49.125Z,6.97
2023-08-01T17:48:16.448Z,8.18
2023-08-01T17:50:44.596Z,7.10
2023-08-01T17:53:11.525Z,12.03
2023-08-01T17:55:38.327Z,10.15
2023-08-01T17:58:05.784Z,9.43
2023-08-01T18:00:32.616Z,15.43
2023-08-01T18:02:59.488Z,8.80
2023-08-01T18:05:26.321Z,10.40
2023-08-01T18:07:53.117Z,8.65
2023-08-01T18:10:20.026Z,12.30
2023-08-01T18:12:48.951Z,8.88
2023-08-01T18:17:42.443Z,8.70
2023-08-01T18:20:11.289Z,7.57
2023-08-01T18:22:38.993Z,6.65
2023-08-01T18:25:06.214Z,9.23
2023-08-01T18:27:33.000Z,11.93
2023-08-01T18:29:59.825Z,9.80
2023-08-01T18:32:26.612Z,7.80
2023-08-01T18:34:59.957Z,7.95
2023-08-01T18:37:27.823Z,11.50
2023-08-01T18:39:57.859Z,8.52
2023-08-01T18:42:25.345Z,8.75
2023-08-01T18:44:53.335Z,12.98
2023-08-01T18:47:20.460Z,8.90
2023-08-01T18:49:50.766Z,6.32
2023-08-01T18:52:17.722Z,6.63
2023-08-01T18:54:45.335Z,6.60
2023-08-01T18:57:12.143Z,7.07
2023-08-01T18:59:38.980Z,7.60
2023-08-01T19:02:06.100Z,7.75
2023-08-01T19:04:32.885Z,8.45
2023-08-01T19:06:59.707Z,7.18
2023-08-01T19:09:26.491Z,6.60
2023-08-01T19:11:53.323Z,7.22
2023-08-01T19:14:20.174Z,10.23
2023-08-01T19:16:47.144Z,7.25
2023-08-01T19:19:14.049Z,7.57
2023-08-01T19:21:40.813Z,7.65
2023-08-01T19:24:07.599Z,10.77
2023-08-01T19:26:34.400Z,9.55
2023-08-01T19:29:01.218Z,7.70
2023-08-01T19:31:28.450Z,8.00
2023-08-01T19:33:55.738Z,10.13
2023-08-01T19:36:22.542Z,15.02
2023-08-01T19:38:49.477Z,12.10
2023-08-01T19:41:16.216Z,11.38
2023-08-01T19:43:42.990Z,12.45
2023-08-01T19:46:18.077Z,10.75
2023-08-01T19:48:46.377Z,10.63
2023-08-01T19:51:13.365Z,7.53
2023-08-01T19:53:40.134Z,14.55
2023-08-01T19:56:07.740Z,7.90
2023-08-01T19:58:34.571Z,11.10
2023-08-01T20:01:01.413Z,8.18
2023-08-01T20:03:29.805Z,8.30
2023-08-01T20:05:57.861Z,9.07
2023-08-01T20:08:25.746Z,12.90
2023-08-01T20:10:58.788Z,9.73
2023-08-01T20:13:26.299Z,8.73
2023-08-01T20:15:55.047Z,9.80
2023-08-01T20:18:22.142Z,9.70
2023-08-01T20:20:49.502Z,7.70
2023-08-01T20:23:16.611Z,7.97
2023-08-01T20:25:44.424Z,9.77
2023-08-01T20:28:11.265Z,6.45
2023-08-01T20:30:38.067Z,5.07
2023-08-01T20:33:05.450Z,8.35
2023-08-01T20:35:32.408Z,8.30
2023-08-01T20:37:59.317Z,8.23
2023-08-01T20:40:26.081Z,7.85
2023-08-01T20:42:53.061Z,7.20
2023-08-01T20:45:20.752Z,7.90
2023-08-01T20:47:47.620Z,5.95
2023-08-01T20:50:14.658Z,5.35
2023-08-01T20:52:41.618Z,9.02
2023-08-01T20:55:08.563Z,7.72
2023-08-01T20:57:35.743Z,8.20
2023-08-01T21:00:02.752Z,9.50
2023-08-01T21:02:29.534Z,5.35
2023-08-01T21:04:56.543Z,6.65
2023-08-01T21:07:23.426Z,5.70
2023-08-01T21:09:50.307Z,7.30
2023-08-01T21:12:17.086Z,6.28
2023-08-01T21:14:43.932Z,7.82
2023-08-01T21:17:11.605Z,8.85
2023-08-01T21:19:38.414Z,5.40
2023-08-01T21:22:05.523Z,8.40
2023-08-01T21:24:32.307Z,7.45
2023-08-01T21:26:59.082Z,6.07
2023-08-01T21:29:25.878Z,7.15
2023-08-01T21:31:52.634Z,5.40
2023-08-01T21:34:19.676Z,7.00
2023-08-01T21:36:46.489Z,7.43
2023-08-01T21:39:13.232Z,6.07
2023-08-01T21:41:40.115Z,6.53
2023-08-01T21:44:06.964Z,6.25
2023-08-01T21:46:33.772Z,6.00
2023-08-01T21:49:00.595Z,7.68
2023-08-01T21:51:27.569Z,6.70
2023-08-01T21:53:54.330Z,5.55
2023-08-01T21:56:21.108Z,7.00
2023-08-01T21:58:47.929Z,7.00
2023-08-01T22:01:14.761Z,4.35
2023-08-01T22:03:41.657Z,6.00
2023-08-01T22:06:08.460Z,5.30
2023-08-01T22:08:35.250Z,5.45
2023-08-01T22:11:02.164Z,9.27
2023-08-01T22:13:29.048Z,6.88
2023-08-01T22:15:55.900Z,8.38
2023-08-01T22:18:25.819Z,5.95
2023-08-01T22:20:57.231Z,8.05
2023-08-01T22:23:24.876Z,6.35
2023-08-01T22:25:53.073Z,3.45
2023-08-01T22:28:20.948Z,5.57
2023-08-01T22:30:48.601Z,6.68
2023-08-01T22:33:15.405Z,3.83
2023-08-01T22:35:42.408Z,6.90
2023-08-01T22:38:09.225Z,5.10
2023-08-01T22:40:36.360Z,6.28
2023-08-01T22:43:03.442Z,6.18
2023-08-01T22:45:30.477Z,6.60
2023-08-01T22:47:57.328Z,5.10
2023-08-01T22:50:24.720Z,6.60
2023-08-01T22:52:52.005Z,5.35
2023-08-01T22:55:20.679Z,9.35
2023-08-01T22:57:48.222Z,5.45
2023-08-01T23:00:15.540Z,7.40
2023-08-01T23:02:43.256Z,6.40
2023-08-01T23:05:11.432Z,6.50
2023-08-01T23:07:38.763Z,4.47
2023-08-01T23:10:07.330Z,6.43
2023-08-01T23:12:34.483Z,9.05
2023-08-01T23:15:01.788Z,8.07
2023-08-01T23:17:33.299Z,5.72
2023-08-01T23:20:00.461Z,6.63
2023-08-01T23:22:27.256Z,4.00
2023-08-01T23:24:54.158Z,5.72
2023-08-01T23:27:21.307Z,5.32
2023-08-01T23:29:48.070Z,6.25
2023-08-01T23:32:14.836Z,7.35
2023-08-01T23:34:42.235Z,6.95
2023-08-01T23:37:09.048Z,5.75
2023-08-01T23:39:35.789Z,7.55
2023-08-01T23:42:02.641Z,5.88
2023-08-01T23:44:30.661Z,7.38
2023-08-01T23:46:59.825Z,6.03
2023-08-01T23:49:26.732Z,9.32
2023-08-01T23:51:56.279Z,6.75
2023-08-01T23:54:23.069Z,6.28
2023-08-01T23:56:49.920Z,5.50
2023-08-01T23:59:16.694Z,6.20
